createdAt,value
2016-05-14T11:10:30.853Z,23712
2016-05-14T11:11:30.888Z,14032
2016-05-14T11:12:30.827Z,11592
2016-05-14T11:13:30.815Z,10884
2016-05-14T11:14:30.801Z,9588
2016-05-14T11:15:30.804Z,8208
2016-05-14T11:16:30.635Z,6908
2016-05-14T11:17:30.779Z,6032
2016-05-14T11:18:31.031Z,5660
2016-05-14T11:19:30.815Z,5652
2016-05-14T11:20:30.756Z,5952
2016-05-14T11:21:30.758Z,6372
2016-05-14T11:22:30.745Z,6596
2016-05-14T11:23:30.747Z,6736
2016-05-14T11:24:30.719Z,6916
2016-05-14T11:25:30.722Z,6920
2016-05-14T11:26:30.709Z,7648
2016-05-14T11:27:30.696Z,9920
2016-05-14T11:28:30.683Z,14028
2016-05-14T11:29:30.685Z,20544
2016-05-14T11:30:30.672Z,19904
2016-05-14T11:31:30.660Z,22720
2016-05-14T11:32:30.491Z,90560
2016-05-14T11:33:30.555Z,97568
2016-05-14T11:34:30.496Z,44160
2016-05-14T11:35:30.624Z,23232
2016-05-14T11:36:30.627Z,15700
2016-05-14T11:37:30.660Z,10960
2016-05-14T11:38:30.616Z,8392
2016-05-14T11:39:30.619Z,6668
2016-05-14T11:40:30.590Z,5832
2016-05-14T11:41:30.437Z,5880
2016-05-14T11:42:30.579Z,6256
2016-05-14T11:43:30.442Z,6736
2016-05-14T11:44:30.570Z,7396
2016-05-14T11:45:30.573Z,8468
2016-05-14T11:46:30.403Z,9660
2016-05-14T11:47:30.390Z,10568
2016-05-14T11:48:30.456Z,12728
2016-05-14T11:49:30.537Z,17312
2016-05-14T11:50:30.507Z,21696
2016-05-14T11:51:30.526Z,23904
2016-05-14T11:52:30.513Z,22112
2016-05-14T11:53:30.345Z,19712
2016-05-14T11:54:30.347Z,18784
2016-05-14T11:55:30.521Z,65056
2016-05-14T11:56:30.492Z,24544
2016-05-14T11:57:30.464Z,54240
2016-05-14T11:58:30.451Z,113920
2016-05-14T11:59:30.297Z,104128
2016-05-14T12:00:30.456Z,103712
2016-05-14T12:01:30.443Z,100608
2016-05-14T12:02:30.461Z,97184
2016-05-14T12:03:30.949Z,91520
2016-05-14T12:04:30.420Z,88480
2016-05-14T12:05:30.422Z,90496
2016-05-14T12:06:30.410Z,24064
2016-05-14T12:07:30.428Z,18464
2016-05-14T12:08:30.243Z,15748
2016-05-14T12:09:30.403Z,13992
2016-05-14T12:10:30.248Z,12316
2016-05-14T12:11:30.251Z,11204
2016-05-14T12:12:30.254Z,10444
2016-05-14T12:13:30.413Z,9308
2016-05-14T12:14:30.229Z,7856
2016-05-14T12:15:30.388Z,6956
2016-05-14T12:16:30.375Z,6396
2016-05-14T12:17:30.393Z,6124
2016-05-14T12:18:30.458Z,5740
2016-05-14T12:19:30.382Z,5440
2016-05-14T12:20:30.385Z,5280
2016-05-14T12:21:30.388Z,5408
2016-05-14T12:22:30.343Z,5544
2016-05-14T12:23:30.190Z,5828
2016-05-14T12:24:30.178Z,6148
2016-05-14T12:25:30.195Z,6648
2016-05-14T12:26:30.323Z,7692
2016-05-14T12:27:30.311Z,10592
2016-05-14T12:28:30.156Z,12204
2016-05-14T12:29:30.300Z,14332
2016-05-14T12:30:30.272Z,16992
2016-05-14T12:31:30.289Z,18048
2016-05-14T12:32:30.292Z,20128
2016-05-14T12:33:30.388Z,44992
2016-05-14T12:34:30.266Z,94272
2016-05-14T12:35:30.097Z,58976
2016-05-14T12:36:30.256Z,96160
2016-05-14T12:37:30.227Z,97184
2016-05-14T12:38:29.902Z,68128
2016-05-14T12:39:30.264Z,63008
2016-05-14T12:40:30.064Z,82112
2016-05-14T12:41:30.208Z,77536
2016-05-14T12:42:30.054Z,74752
2016-05-14T12:43:30.213Z,74048
2016-05-14T12:44:30.591Z,77600
2016-05-14T12:45:30.187Z,80224
2016-05-14T12:46:30.174Z,81760
2016-05-14T12:47:30.035Z,83296
2016-05-14T12:48:31.054Z,82080
2016-05-14T12:49:30.166Z,85024
2016-05-14T12:50:30.168Z,70304
2016-05-14T12:51:30.204Z,76288
2016-05-14T12:52:30.190Z,21504
2016-05-14T12:53:30.395Z,78944
2016-05-14T12:54:29.851Z,79776
2016-05-14T12:55:30.182Z,29248
2016-05-14T12:56:30.014Z,26656
2016-05-14T12:57:30.187Z,69312
2016-05-14T12:58:30.159Z,27456
2016-05-14T12:59:30.178Z,21248
2016-05-14T13:00:30.008Z,16480
2016-05-14T13:01:30.167Z,16768
2016-05-14T13:02:30.155Z,16800
2016-05-14T13:03:29.860Z,14180
2016-05-14T13:04:30.003Z,11484
2016-05-14T13:05:29.991Z,9236
2016-05-14T13:06:30.150Z,7268
2016-05-14T13:07:30.152Z,5760
2016-05-14T13:08:30.139Z,4808
2016-05-14T13:09:30.142Z,4004
2016-05-14T13:10:30.035Z,3500
2016-05-14T13:11:30.147Z,3056
2016-05-14T13:12:30.135Z,2740
2016-05-14T13:13:30.121Z,2536
2016-05-14T13:14:30.140Z,2432
2016-05-14T13:15:30.111Z,2420
2016-05-14T13:16:29.958Z,2536
2016-05-14T13:17:30.101Z,2604
2016-05-14T13:18:30.119Z,2552
2016-05-14T13:19:30.091Z,2476
2016-05-14T13:20:29.937Z,2584
2016-05-14T13:21:30.081Z,2808
2016-05-14T13:22:30.287Z,2972
2016-05-14T13:23:30.070Z,3000
2016-05-14T13:24:30.057Z,3112
2016-05-14T13:25:29.888Z,3480
2016-05-14T13:26:29.903Z,3948
2016-05-14T13:27:29.929Z,4632
2016-05-14T13:28:30.143Z,4932
2016-05-14T13:29:30.137Z,5128
2016-05-14T13:30:30.179Z,6180
2016-05-14T13:31:30.196Z,10996
2016-05-14T13:32:30.199Z,23392
2016-05-14T13:33:30.621Z,45024
2016-05-14T13:34:30.060Z,80640
2016-05-14T13:35:30.233Z,81344
2016-05-14T13:36:30.247Z,86048
2016-05-14T13:37:30.224Z,64032
2016-05-14T13:38:30.074Z,60896
2016-05-14T13:39:30.207Z,91872
2016-05-14T13:40:30.215Z,87616
2016-05-14T13:41:30.081Z,82368
2016-05-14T13:42:30.226Z,78464
2016-05-14T13:43:30.200Z,75968
2016-05-14T13:44:30.220Z,79520
2016-05-14T13:45:30.053Z,11952
2016-05-14T13:46:30.073Z,10076
2016-05-14T13:47:30.201Z,9760
2016-05-14T13:48:30.064Z,9568
2016-05-14T13:49:30.176Z,10976
2016-05-14T13:50:30.023Z,20640
2016-05-14T13:51:30.183Z,26144
2016-05-14T13:52:30.186Z,80160
2016-05-14T13:53:30.205Z,79104
2016-05-14T13:54:30.176Z,76480
2016-05-14T13:55:29.991Z,76160
2016-05-14T13:56:30.166Z,78208
2016-05-14T13:57:29.840Z,82880
2016-05-14T13:58:30.015Z,90400
2016-05-14T13:59:30.142Z,95360
2016-05-14T14:00:29.990Z,95808
2016-05-14T14:01:30.132Z,93408
2016-05-14T14:02:29.979Z,90560
2016-05-14T14:03:30.481Z,59392
2016-05-14T14:04:30.125Z,80288
2016-05-14T14:05:30.142Z,77120
2016-05-14T14:06:30.131Z,37312
2016-05-14T14:07:30.118Z,31904
2016-05-14T14:08:30.120Z,41216
2016-05-14T14:09:30.091Z,25088
2016-05-14T14:10:29.938Z,19904
2016-05-14T14:11:29.940Z,66496
2016-05-14T14:12:29.943Z,74944
2016-05-14T14:13:29.789Z,18496
2016-05-14T14:14:30.089Z,15380
2016-05-14T14:15:30.091Z,14156
2016-05-14T14:16:29.939Z,13556
2016-05-14T14:17:30.081Z,12932
2016-05-14T14:18:30.553Z,13088
2016-05-14T14:19:29.930Z,12936
2016-05-14T14:20:30.074Z,11652
2016-05-14T14:21:30.077Z,10024
2016-05-14T14:22:29.954Z,9984
2016-05-14T14:23:30.067Z,9772
2016-05-14T14:24:30.069Z,10400
2016-05-14T14:25:29.900Z,9796
2016-05-14T14:26:30.043Z,7612
2016-05-14T14:27:30.030Z,4500
2016-05-14T14:28:30.033Z,2560
2016-05-14T14:29:30.020Z,2056
2016-05-14T14:30:30.023Z,1828
2016-05-14T14:31:30.025Z,1528
2016-05-14T14:32:29.841Z,1376
2016-05-14T14:33:30.218Z,1412
2016-05-14T14:34:30.346Z,1520
2016-05-14T14:35:29.989Z,1580
2016-05-14T14:36:29.665Z,1536
2016-05-14T14:37:29.979Z,1584
2016-05-14T14:38:29.951Z,1404
2016-05-14T14:39:29.812Z,1248
2016-05-14T14:40:29.972Z,1196
2016-05-14T14:41:29.943Z,1196
2016-05-14T14:42:29.946Z,1304
2016-05-14T14:43:29.948Z,1552
2016-05-14T14:44:29.903Z,1872
2016-05-14T14:45:30.094Z,2216
2016-05-14T14:46:29.894Z,2284
2016-05-14T14:47:29.896Z,2696
2016-05-14T14:48:29.883Z,2864
2016-05-14T14:49:29.700Z,3104
2016-05-14T14:50:29.842Z,3244
2016-05-14T14:51:29.829Z,4180
2016-05-14T14:52:29.816Z,7636
2016-05-14T14:53:29.819Z,11004
2016-05-14T14:54:29.650Z,11620
2016-05-14T14:55:29.793Z,9884
2016-05-14T14:56:29.608Z,8084
2016-05-14T14:57:29.767Z,6996
2016-05-14T14:58:29.755Z,6688
2016-05-14T14:59:29.585Z,6488
2016-05-14T15:00:29.572Z,7324
2016-05-14T15:01:29.715Z,7728
2016-05-14T15:02:29.702Z,7556
2016-05-14T15:03:31.064Z,7448
2016-05-14T15:04:30.036Z,7592
2016-05-14T15:05:29.664Z,8016
2016-05-14T15:06:29.651Z,9416
2016-05-14T15:07:29.637Z,11316
2016-05-14T15:08:29.640Z,29536
2016-05-14T15:09:29.628Z,51616
2016-05-14T15:10:29.474Z,16896
2016-05-14T15:11:29.633Z,25888
2016-05-14T15:12:29.589Z,14056
2016-05-14T15:13:29.420Z,12260
2016-05-14T15:14:29.564Z,36896
2016-05-14T15:15:29.581Z,75392
2016-05-14T15:16:29.537Z,77824
2016-05-14T15:17:29.539Z,78368
2016-05-14T15:18:29.245Z,75296
2016-05-14T15:19:29.530Z,70496
2016-05-14T15:20:29.344Z,67232
2016-05-14T15:21:29.519Z,58496
2016-05-14T15:22:29.475Z,13068
2016-05-14T15:23:29.462Z,6240
2016-05-14T15:24:29.466Z,6548
2016-05-14T15:25:29.921Z,9072
2016-05-14T15:26:29.455Z,10344
2016-05-14T15:27:29.441Z,9232
2016-05-14T15:28:29.429Z,9812
2016-05-14T15:29:29.479Z,11244
2016-05-14T15:30:29.403Z,11352
2016-05-14T15:31:29.405Z,12468
2016-05-14T15:32:29.237Z,11172
2016-05-14T15:33:29.646Z,11984
2016-05-14T15:34:29.242Z,11632
2016-05-14T15:35:29.369Z,11048
2016-05-14T15:36:29.372Z,11092
2016-05-14T15:37:29.359Z,10292
2016-05-14T15:38:29.190Z,9336
2016-05-14T15:39:29.334Z,8844
2016-05-14T15:40:29.320Z,8900
2016-05-14T15:41:29.167Z,8376
2016-05-14T15:42:29.154Z,7828
2016-05-14T15:43:29.141Z,7976
2016-05-14T15:44:29.300Z,7880
2016-05-14T15:45:29.115Z,7160
2016-05-14T15:46:29.103Z,6176
2016-05-14T15:47:29.261Z,5676
2016-05-14T15:48:29.373Z,4960
2016-05-14T15:49:28.860Z,4944
2016-05-14T15:50:29.410Z,5408
2016-05-14T15:51:29.225Z,6160
2016-05-14T15:52:29.180Z,7244
2016-05-14T15:53:29.027Z,7292
2016-05-14T15:54:29.171Z,6628
2016-05-14T15:55:29.017Z,6328
2016-05-14T15:56:28.832Z,6088
2016-05-14T15:57:29.319Z,6156
2016-05-14T15:58:29.118Z,6864
2016-05-14T15:59:29.277Z,7680
2016-05-14T16:00:28.952Z,8392
2016-05-14T16:01:29.096Z,8372
2016-05-14T16:02:29.067Z,7864
2016-05-14T16:03:29.008Z,7564
2016-05-14T16:04:29.073Z,7604
2016-05-14T16:05:28.887Z,7992
2016-05-14T16:06:29.031Z,8324
2016-05-14T16:07:28.862Z,9648
2016-05-14T16:08:29.036Z,9872
2016-05-14T16:09:29.024Z,9500
2016-05-14T16:10:28.823Z,8780
2016-05-14T16:11:28.967Z,7708
2016-05-14T16:12:28.969Z,6496
2016-05-14T16:13:28.800Z,5512
2016-05-14T16:14:28.928Z,5048
2016-05-14T16:15:28.931Z,4948
2016-05-14T16:16:28.762Z,4920
2016-05-14T16:17:28.904Z,5032
2016-05-14T16:18:28.969Z,4940
2016-05-14T16:19:28.753Z,5008
2016-05-14T16:20:28.866Z,5088
2016-05-14T16:21:28.853Z,5604
2016-05-14T16:22:28.856Z,14556
2016-05-14T16:23:28.670Z,30240
2016-05-14T16:24:28.719Z,45280
2016-05-14T16:25:28.675Z,47584
2016-05-14T16:26:28.663Z,44576
2016-05-14T16:27:28.838Z,40256
2016-05-14T16:28:28.808Z,38112
2016-05-14T16:29:28.624Z,37408
2016-05-14T16:30:28.626Z,39456
2016-05-14T16:31:28.677Z,40768
2016-05-14T16:32:28.835Z,41600
2016-05-14T16:33:28.479Z,41664
2016-05-14T16:34:29.684Z,40864
2016-05-14T16:35:28.577Z,37088
2016-05-14T16:36:28.737Z,36288
2016-05-14T16:37:28.724Z,33216
2016-05-14T16:38:28.555Z,31712
2016-05-14T16:39:28.698Z,28192
2016-05-14T16:40:28.700Z,27072
2016-05-14T16:41:28.688Z,26944
2016-05-14T16:42:28.550Z,26016
2016-05-14T16:43:31.646Z,27008
2016-05-14T16:44:28.680Z,29088
2016-05-14T16:45:37.542Z,31264
2016-05-14T16:46:28.857Z,29952
2016-05-14T16:47:28.641Z,29728
2016-05-14T16:48:36.112Z,13216
2016-05-14T16:49:28.662Z,23840
2016-05-14T16:50:42.462Z,6184
2016-05-14T16:51:28.620Z,6144
2016-05-14T16:52:28.639Z,9236
2016-05-14T16:53:35.720Z,17856
2016-05-14T16:54:28.441Z,9692
2016-05-14T16:55:28.444Z,28416
2016-05-14T16:56:28.619Z,33536
2016-05-14T16:57:28.261Z,28928
2016-05-14T16:58:28.561Z,22560
2016-05-14T16:59:28.454Z,23744
2016-05-14T17:00:28.567Z,12244
2016-05-14T17:01:28.414Z,11984
2016-05-14T17:02:28.557Z,4568
2016-05-14T17:03:28.902Z,4040
2016-05-14T17:04:28.422Z,19872
2016-05-14T17:05:28.518Z,17696
2016-05-14T17:06:28.504Z,25504
2016-05-14T17:07:28.492Z,5220
2016-05-14T17:08:28.479Z,5304
2016-05-14T17:09:28.466Z,5060
2016-05-14T17:10:28.468Z,4444
2016-05-14T17:11:28.456Z,8472
2016-05-14T17:12:28.473Z,5160
2016-05-14T17:13:28.446Z,16992
2016-05-14T17:14:28.432Z,4608
2016-05-14T17:15:28.404Z,3048
2016-05-14T17:16:28.407Z,2844
2016-05-14T17:17:28.409Z,2968
2016-05-14T17:18:28.928Z,3408
2016-05-14T17:19:28.462Z,3748
2016-05-14T17:20:28.230Z,3964
2016-05-14T17:21:28.373Z,4068
2016-05-14T17:22:28.345Z,3892
2016-05-14T17:23:28.331Z,3624
2016-05-14T17:24:28.178Z,3668
2016-05-14T17:25:28.322Z,3704
2016-05-14T17:26:28.153Z,3672
2016-05-14T17:27:28.296Z,3820
2016-05-14T17:28:28.142Z,3856
2016-05-14T17:29:28.269Z,3896
2016-05-14T17:30:28.257Z,3832
2016-05-14T17:31:28.244Z,3872
2016-05-14T17:32:28.247Z,3940
2016-05-14T17:33:28.671Z,3992
2016-05-14T17:34:28.580Z,3888
2016-05-14T17:35:28.208Z,3812
2016-05-14T17:36:28.195Z,3736
2016-05-14T17:37:28.182Z,3520
2016-05-14T17:38:28.185Z,3272
2016-05-14T17:39:28.157Z,2984
2016-05-14T17:40:28.143Z,2728
2016-05-14T17:41:28.130Z,2576
2016-05-14T17:42:28.132Z,2516
2016-05-14T17:43:28.120Z,2484
2016-05-14T17:44:28.091Z,2448
2016-05-14T17:45:28.079Z,2404
2016-05-14T17:46:28.082Z,2116
2016-05-14T17:47:27.912Z,2324
2016-05-14T17:48:28.414Z,2064
2016-05-14T17:49:27.901Z,1964
2016-05-14T17:50:28.045Z,2088
2016-05-14T17:51:28.032Z,1920
2016-05-14T17:52:27.847Z,1860
2016-05-14T17:53:27.991Z,1840
2016-05-14T17:54:27.977Z,1900
2016-05-14T17:55:27.980Z,1852
2016-05-14T17:56:27.795Z,1824
2016-05-14T17:57:27.939Z,1728
2016-05-14T17:58:27.925Z,1680
2016-05-14T17:59:27.757Z,1636
2016-05-14T18:00:27.744Z,1636
2016-05-14T18:01:27.590Z,1664
2016-05-14T18:02:27.874Z,1656
2016-05-14T18:03:28.127Z,1736
2016-05-14T18:04:28.177Z,1804
2016-05-14T18:05:27.524Z,1836
2016-05-14T18:06:27.558Z,1840
2016-05-14T18:07:27.810Z,1812
2016-05-14T18:08:27.796Z,1680
2016-05-14T18:09:27.643Z,1368
2016-05-14T18:10:27.787Z,1152
2016-05-14T18:11:27.773Z,1012
2016-05-14T18:12:27.745Z,988
2016-05-14T18:13:27.732Z,960
2016-05-14T18:14:27.704Z,848
2016-05-14T18:15:27.550Z,856
2016-05-14T18:16:27.678Z,848
2016-05-14T18:17:27.696Z,728
2016-05-14T18:18:27.479Z,620
2016-05-14T18:19:27.857Z,588
2016-05-14T18:20:27.626Z,612
2016-05-14T18:21:27.644Z,596
2016-05-14T18:22:27.287Z,492
2016-05-14T18:23:27.603Z,548
2016-05-14T18:24:27.590Z,632
2016-05-14T18:25:27.561Z,708
2016-05-14T18:26:27.548Z,732
2016-05-14T18:27:27.551Z,832
2016-05-14T18:28:27.350Z,820
2016-05-14T18:29:27.338Z,892
2016-05-14T18:30:27.496Z,928
2016-05-14T18:31:27.343Z,952
2016-05-14T18:32:27.471Z,992
2016-05-14T18:33:27.317Z,972
2016-05-14T18:34:27.522Z,936
2016-05-14T18:35:27.416Z,924
2016-05-14T18:36:27.263Z,924
2016-05-14T18:37:27.390Z,928
2016-05-14T18:38:27.377Z,940
2016-05-14T18:39:27.208Z,968
2016-05-14T18:40:27.351Z,960
2016-05-14T18:41:27.324Z,916
2016-05-14T18:42:27.341Z,852
2016-05-14T18:43:27.313Z,796
2016-05-14T18:44:27.299Z,736
2016-05-14T18:45:27.474Z,688
2016-05-14T18:46:27.259Z,668
2016-05-14T18:47:27.245Z,636
2016-05-14T18:48:27.748Z,608
2016-05-14T18:49:27.469Z,584
2016-05-14T18:50:27.206Z,564
2016-05-14T18:51:27.037Z,540
2016-05-14T18:52:27.181Z,512
2016-05-14T18:53:27.168Z,488
2016-05-14T18:54:27.139Z,476
2016-05-14T18:55:26.829Z,468
2016-05-14T18:56:27.113Z,456
2016-05-14T18:57:27.132Z,432
2016-05-14T18:58:27.103Z,404
2016-05-14T18:59:26.964Z,380
2016-05-14T19:00:27.062Z,348
2016-05-14T19:01:27.049Z,320
2016-05-14T19:02:26.880Z,296
2016-05-14T19:03:28.054Z,276
2016-05-14T19:04:27.010Z,256
2016-05-14T19:05:26.997Z,232
2016-05-14T19:06:26.969Z,212
2016-05-14T19:07:26.799Z,180
2016-05-14T19:08:26.942Z,140
2016-05-14T19:09:26.616Z,124
2016-05-14T19:10:26.901Z,92
2016-05-14T19:11:26.747Z,76
2016-05-14T19:12:26.906Z,72
2016-05-14T19:13:26.707Z,64
2016-05-14T19:14:26.709Z,48
2016-05-14T19:15:26.852Z,36
2016-05-14T19:16:26.823Z,24
2016-05-14T19:17:26.795Z,16
2016-05-14T19:18:27.282Z,12
2016-05-14T19:19:26.473Z,16
2016-05-14T19:20:26.757Z,16
2016-05-14T19:21:26.742Z,16
2016-05-14T19:22:26.745Z,16
2016-05-14T19:23:26.576Z,12
2016-05-14T19:24:26.236Z,16
2016-05-14T19:25:26.378Z,24
2016-05-14T19:26:26.367Z,24
2016-05-14T19:27:26.509Z,16
2016-05-14T19:28:26.637Z,12
2016-05-14T19:29:26.467Z,8
2016-05-14T19:30:26.439Z,12
2016-05-14T19:31:26.442Z,8
2016-05-14T19:32:26.428Z,8
2016-05-14T19:33:26.260Z,8
2016-05-14T19:34:27.169Z,12
2016-05-14T19:35:26.531Z,8
2016-05-14T19:36:26.721Z,8
2016-05-14T19:37:26.207Z,8
2016-05-14T19:38:26.491Z,4
2016-05-14T19:39:26.463Z,4
2016-05-14T19:40:26.154Z,4
2016-05-14T19:41:26.297Z,4
2016-05-14T19:42:26.440Z,4
2016-05-14T19:43:26.255Z,4
2016-05-14T19:44:26.243Z,4
2016-05-14T19:45:26.386Z,4
2016-05-14T19:46:26.201Z,0
2016-05-14T19:47:26.360Z,0
2016-05-14T19:48:26.331Z,4
2016-05-14T19:49:26.740Z,4
2016-05-14T19:50:26.306Z,0
2016-05-14T19:51:26.309Z,0
2016-05-14T19:52:26.280Z,0
2016-05-14T19:53:26.282Z,0
2016-05-14T19:54:26.082Z,0
2016-05-14T19:55:26.069Z,0
2016-05-14T19:56:26.212Z,0
2016-05-14T19:57:26.200Z,0
2016-05-14T19:58:26.031Z,0
2016-05-14T19:59:26.173Z,0
2016-05-14T20:00:25.988Z,0
2016-05-14T20:01:26.147Z,0
2016-05-14T20:02:25.964Z,0
2016-05-14T20:03:25.981Z,0
2016-05-14T20:04:26.280Z,0
2016-05-14T20:05:26.065Z,0
2016-05-14T20:06:26.270Z,0
2016-05-14T20:07:25.897Z,0
2016-05-14T20:08:25.901Z,0
2016-05-14T20:09:26.028Z,0
2016-05-14T20:10:25.860Z,0
2016-05-14T20:11:26.018Z,0
2016-05-14T20:12:25.958Z,0
2016-05-14T20:13:25.946Z,0
2016-05-14T20:14:25.777Z,0
2016-05-14T20:15:25.763Z,0
2016-05-14T20:16:25.594Z,0
2016-05-14T20:17:25.769Z,0
2016-05-14T20:18:25.881Z,0
2016-05-14T20:19:26.087Z,0
2016-05-14T20:20:25.526Z,0
2016-05-14T20:21:25.655Z,0
2016-05-14T20:22:25.813Z,0
2016-05-14T20:23:25.784Z,0
2016-05-14T20:24:25.616Z,0
2016-05-14T20:25:25.743Z,0
2016-05-14T20:26:25.746Z,0
2016-05-14T20:27:25.717Z,0
2016-05-14T20:28:25.704Z,0
2016-05-14T20:29:25.536Z,0
2016-05-14T20:30:25.522Z,0
2016-05-14T20:31:25.495Z,0
2016-05-14T20:32:25.481Z,0
2016-05-14T20:33:26.297Z,0
2016-05-14T20:34:25.456Z,0
2016-05-14T20:35:25.598Z,0
2016-05-14T20:36:25.586Z,0
2016-05-14T20:37:25.557Z,0
2016-05-14T20:38:25.403Z,0
2016-05-14T20:39:25.516Z,0
2016-05-14T20:40:25.503Z,0
2016-05-14T20:41:25.349Z,0
2016-05-14T20:42:25.477Z,0
2016-05-14T20:43:25.292Z,0
2016-05-14T20:44:25.436Z,0
2016-05-14T20:45:25.469Z,0
2016-05-14T20:46:25.425Z,0
2016-05-14T20:47:25.240Z,0
2016-05-14T20:48:25.430Z,0
2016-05-14T20:49:25.574Z,0
2016-05-14T20:50:25.342Z,0
2016-05-14T20:51:25.345Z,0
2016-05-14T20:52:25.301Z,0
2016-05-14T20:53:25.288Z,0
2016-05-14T20:54:25.274Z,0
2016-05-14T20:55:25.277Z,0
2016-05-14T20:56:25.265Z,0
2016-05-14T20:57:24.923Z,0
2016-05-14T20:58:24.895Z,0
2016-05-14T20:59:25.179Z,0
2016-05-14T21:00:25.181Z,0
2016-05-14T21:01:25.168Z,0
2016-05-14T21:02:25.156Z,0
2016-05-14T21:03:25.580Z,0
2016-05-14T21:04:25.114Z,0
2016-05-14T21:05:25.085Z,0
2016-05-14T21:06:24.917Z,0
2016-05-14T21:07:25.059Z,0
2016-05-14T21:08:25.047Z,0
2016-05-14T21:09:25.018Z,0
2016-05-14T21:10:25.021Z,0
2016-05-14T21:11:24.680Z,0
2016-05-14T21:12:24.979Z,0
2016-05-14T21:13:24.951Z,0
2016-05-14T21:14:24.938Z,0
2016-05-14T21:15:24.925Z,0
2016-05-14T21:16:24.740Z,0
2016-05-14T21:17:24.883Z,0
2016-05-14T21:18:24.636Z,0
2016-05-14T21:19:24.560Z,0
2016-05-14T21:20:24.876Z,0
2016-05-14T21:21:24.832Z,0
2016-05-14T21:22:24.490Z,0
2016-05-14T21:23:24.790Z,0
2016-05-14T21:24:24.793Z,0
2016-05-14T21:25:24.624Z,0
2016-05-14T21:26:24.423Z,0
2016-05-14T21:27:24.723Z,0
2016-05-14T21:28:24.710Z,0
2016-05-14T21:29:24.540Z,0
2016-05-14T21:30:24.668Z,0
2016-05-14T21:31:24.656Z,0
2016-05-14T21:32:24.658Z,0
2016-05-14T21:33:24.489Z,0
2016-05-14T21:34:24.460Z,0
2016-05-14T21:35:24.603Z,0
2016-05-14T21:36:24.575Z,0
2016-05-14T21:37:24.547Z,0
2016-05-14T21:38:24.517Z,0
2016-05-14T21:39:24.505Z,0
2016-05-14T21:40:24.352Z,0
2016-05-14T21:41:24.479Z,0
2016-05-14T21:42:24.466Z,0
2016-05-14T21:43:24.468Z,0
2016-05-14T21:44:24.440Z,0
2016-05-14T21:45:24.256Z,0
2016-05-14T21:46:24.399Z,0
2016-05-14T21:47:24.371Z,0
2016-05-14T21:48:24.373Z,0
2016-05-14T21:49:24.391Z,0
2016-05-14T21:50:24.332Z,0
2016-05-14T21:51:24.302Z,0
2016-05-14T21:52:24.290Z,0
2016-05-14T21:53:24.276Z,0
2016-05-14T21:54:24.468Z,0
2016-05-14T21:55:24.267Z,0
2016-05-14T21:56:24.223Z,0
2016-05-14T21:57:24.257Z,0
2016-05-14T21:58:24.025Z,0
2016-05-14T21:59:24.168Z,0
2016-05-14T22:00:24.171Z,0
2016-05-14T22:01:23.986Z,0
2016-05-14T22:02:24.317Z,0
2016-05-14T22:03:23.959Z,0
2016-05-14T22:04:24.792Z,0
2016-05-14T22:05:24.090Z,0
2016-05-14T22:06:24.062Z,0
2016-05-14T22:07:24.034Z,0
2016-05-14T22:08:24.005Z,0
2016-05-14T22:09:23.992Z,0
2016-05-14T22:10:23.994Z,0
2016-05-14T22:11:23.966Z,0
2016-05-14T22:12:23.938Z,0
2016-05-14T22:13:23.925Z,0
2016-05-14T22:14:23.911Z,0
2016-05-14T22:15:23.914Z,0
2016-05-14T22:16:23.886Z,0
2016-05-14T22:17:23.701Z,0
2016-05-14T22:18:24.344Z,0
2016-05-14T22:19:23.831Z,0
2016-05-14T22:20:23.662Z,0
2016-05-14T22:21:23.634Z,0
2016-05-14T22:22:23.777Z,0
2016-05-14T22:23:23.748Z,0
2016-05-14T22:24:23.579Z,0
2016-05-14T22:25:23.566Z,0
2016-05-14T22:26:23.710Z,0
2016-05-14T22:27:23.697Z,0
2016-05-14T22:28:23.652Z,0
2016-05-14T22:29:23.640Z,0
2016-05-14T22:30:23.642Z,0
2016-05-14T22:31:23.614Z,0
2016-05-14T22:32:23.616Z,0
2016-05-14T22:33:24.005Z,0
2016-05-14T22:34:23.519Z,0
2016-05-14T22:35:23.534Z,0
2016-05-14T22:36:23.548Z,0
2016-05-14T22:37:23.726Z,0
2016-05-14T22:38:23.555Z,0
2016-05-14T22:39:23.574Z,0
2016-05-14T22:40:23.717Z,0
2016-05-14T22:41:23.719Z,0
2016-05-14T22:42:23.702Z,0
2016-05-14T22:43:23.710Z,0
2016-05-14T22:44:23.687Z,0
2016-05-14T22:45:24.289Z,0
2016-05-14T22:46:23.656Z,0
2016-05-14T22:47:23.633Z,0
2016-05-14T22:48:23.621Z,0
2016-05-14T22:49:23.689Z,0
2016-05-14T22:50:23.599Z,0
2016-05-14T22:51:23.588Z,0
2016-05-14T22:52:23.561Z,0
2016-05-14T22:53:23.581Z,0
2016-05-14T22:54:23.521Z,0
2016-05-14T22:55:23.352Z,0
2016-05-14T22:56:23.199Z,0
2016-05-14T22:57:23.484Z,0
2016-05-14T22:58:23.472Z,0
2016-05-14T22:59:23.444Z,0
2016-05-14T23:00:23.431Z,0
2016-05-14T23:01:23.419Z,0
2016-05-14T23:02:23.390Z,0
2016-05-14T23:03:23.221Z,0
2016-05-14T23:04:23.224Z,0
2016-05-14T23:05:23.351Z,0
2016-05-14T23:06:23.323Z,0
2016-05-14T23:07:23.153Z,0
2016-05-14T23:08:23.297Z,0
2016-05-14T23:09:23.301Z,0
2016-05-14T23:10:23.271Z,0
2016-05-14T23:11:23.243Z,0
2016-05-14T23:12:23.214Z,0
2016-05-14T23:13:23.217Z,0
2016-05-14T23:14:23.204Z,0
2016-05-14T23:15:23.159Z,0
2016-05-14T23:16:23.147Z,0
2016-05-14T23:17:23.134Z,0
2016-05-14T23:18:23.120Z,0
2016-05-14T23:19:23.811Z,0
2016-05-14T23:20:22.939Z,0
2016-05-14T23:21:23.082Z,0
2016-05-14T23:22:23.038Z,0
2016-05-14T23:23:23.025Z,0
2016-05-14T23:24:22.841Z,0
2016-05-14T23:25:22.999Z,0
2016-05-14T23:26:22.986Z,0
2016-05-14T23:27:22.973Z,0
2016-05-14T23:28:22.772Z,0
2016-05-14T23:29:22.807Z,0
2016-05-14T23:30:22.888Z,0
2016-05-14T23:31:22.875Z,0
2016-05-14T23:32:22.752Z,0
2016-05-14T23:33:22.848Z,0
2016-05-14T23:34:22.788Z,0
2016-05-14T23:35:22.651Z,0
2016-05-14T23:36:22.513Z,0
2016-05-14T23:37:22.782Z,0
2016-05-14T23:38:22.753Z,0
2016-05-14T23:39:22.740Z,0
2016-05-14T23:40:22.554Z,0
2016-05-14T23:41:22.557Z,0
2016-05-14T23:42:22.685Z,0
2016-05-14T23:43:22.673Z,0
2016-05-14T23:44:22.348Z,0
2016-05-14T23:45:22.631Z,0
2016-05-14T23:46:22.618Z,0
2016-05-14T23:47:22.433Z,0
2016-05-14T23:48:22.437Z,0
2016-05-14T23:49:22.563Z,0
2016-05-14T23:50:22.395Z,0
2016-05-14T23:51:22.522Z,0
2016-05-14T23:52:22.509Z,0
2016-05-14T23:53:22.481Z,0
2016-05-14T23:54:22.311Z,0
2016-05-14T23:55:22.439Z,0
2016-05-14T23:56:22.442Z,0
2016-05-14T23:57:22.413Z,0
2016-05-14T23:58:22.260Z,0
2016-05-14T23:59:22.247Z,0
